Terminal Aerodrome Forecast
Issued by NWS Pueblo, CO

Home | Current Version | Previous Version | Text Only | Print | Product List | Glossary On
Versions: 1 2 3 4 5 6 7 8 9 10 11 12 13 14 15 16 17 18 19 20 21 22 23 24 25 26 27 28 29
000
FTUS45 KPUB 211435 AAA
TAFCOS
TAF AMD
KCOS 211435Z 2115/2212 04008KT P6SM BKN140
     FM211800 19009KT P6SM SCT100 BKN140
     FM220100 34007KT P6SM SCT100 BKN140
     FM220600 34012KT P6SM SCT100 BKN140=

USA.gov is the U.S. government's official web portal to all federal, state and local government web resources and services.